Time;durP1;ratioP1;P1;durP2;ratioP2;P2;SDS_P1;SDS_P2;PMS_P1;PMS_P2;Temp;Humidity;BMP_temperature;BMP_pressure;BME280_temperature;BME280_humidity;BME280_pressure;Samples;Min_cycle;Max_cycle;Signal;HPM_P1;HPM_P2
2023/06/25 00:01:59;;;;;;;10.27;6.80;;;;;;;;;;5029913;28;100161;-73
2023/06/25 00:04:25;;;;;;;15.38;8.20;;;;;;;;;;5029263;28;99685;-73
2023/06/25 00:06:52;;;;;;;8.85;6.75;;;;;;;;;;5029899;28;98502;-73
2023/06/25 00:09:18;;;;;;;9.15;7.05;;;;;;;;;;5014947;28;99747;-73
2023/06/25 00:11:44;;;;;;;11.25;7.97;;;;;;;;;;5032816;27;100141;-73
2023/06/25 00:14:11;;;;;;;8.63;7.72;;;;;;;;;;5033311;27;98494;-73
2023/06/25 00:16:37;;;;;;;17.83;8.25;;;;;;;;;;5033841;27;100317;-73
2023/06/25 00:19:04;;;;;;;9.98;7.72;;;;;;;;;;5035755;28;98519;-73
2023/06/25 00:21:30;;;;;;;9.65;8.02;;;;;;;;;;5032672;27;99601;-73
2023/06/25 00:23:56;;;;;;;10.43;7.57;;;;;;;;;;5031463;28;100334;-73
2023/06/25 00:26:23;;;;;;;10.13;7.15;;;;;;;;;;5033589;28;98502;-73
2023/06/25 00:28:50;;;;;;;15.05;8.40;;;;;;;;;;5032543;28;100374;-73
2023/06/25 00:31:16;;;;;;;10.68;7.50;;;;;;;;;;5014973;28;99703;-72
2023/06/25 00:33:43;;;;;;;10.55;7.45;;;;;;;;;;5032649;28;98571;-73
2023/06/25 00:36:09;;;;;;;11.40;8.07;;;;;;;;;;5015241;28;100337;-72
2023/06/25 00:38:37;;;;;;;11.68;8.13;;;;;;;;;;5032763;28;100719;-73
2023/06/25 00:41:05;;;;;;;14.60;7.85;;;;;;;;;;5037034;28;97772;-75
2023/06/25 00:43:32;;;;;;;11.13;7.88;;;;;;;;;;5031966;28;99909;-73
2023/06/25 00:45:59;;;;;;;10.18;7.93;;;;;;;;;;5032147;28;98578;-73
2023/06/25 00:48:26;;;;;;;11.95;8.38;;;;;;;;;;5012006;28;99539;-73
2023/06/25 00:50:53;;;;;;;13.07;8.43;;;;;;;;;;5012470;28;101091;-73
2023/06/25 00:53:19;;;;;;;9.57;8.32;;;;;;;;;;5012298;28;98552;-72
2023/06/25 00:55:50;;;;;;;15.90;8.23;;;;;;;;;;5011851;28;99142;-73
2023/06/25 00:58:20;;;;;;;12.15;8.25;;;;;;;;;;5012028;28;99602;-73
2023/06/25 01:00:47;;;;;;;16.38;8.95;;;;;;;;;;5012684;28;98485;-72
2023/06/25 01:03:26;;;;;;;13.43;8.98;;;;;;;;;;5014976;28;99589;-73
2023/06/25 01:05:57;;;;;;;12.50;8.95;;;;;;;;;;5012821;28;97776;-73
2023/06/25 01:08:39;;;;;;;13.02;8.63;;;;;;;;;;5012075;28;98707;-73
2023/06/25 01:11:05;;;;;;;14.85;9.70;;;;;;;;;;5011651;28;99780;-72
2023/06/25 01:13:32;;;;;;;16.48;8.48;;;;;;;;;;5011511;28;99317;-72
2023/06/25 01:15:58;;;;;;;11.25;8.88;;;;;;;;;;4994458;28;99979;-72
2023/06/25 01:18:25;;;;;;;13.52;8.35;;;;;;;;;;5012012;28;99686;-72
2023/06/25 01:20:52;;;;;;;15.57;8.20;;;;;;;;;;5011011;28;98474;-72
2023/06/25 01:23:21;;;;;;;11.95;8.65;;;;;;;;;;5012448;28;99069;-73
2023/06/25 01:25:48;;;;;;;14.18;9.55;;;;;;;;;;5014776;28;99738;-73
2023/06/25 01:28:19;;;;;;;18.73;11.38;;;;;;;;;;5011710;28;99180;-72
2023/06/25 01:30:52;;;;;;;16.05;10.15;;;;;;;;;;5011645;28;99839;-73
2023/06/25 01:33:19;;;;;;;13.85;10.68;;;;;;;;;;5010731;28;98516;-73
2023/06/25 01:35:46;;;;;;;15.90;9.90;;;;;;;;;;5010728;28;99228;-72
2023/06/25 01:38:13;;;;;;;20.17;10.65;;;;;;;;;;5010834;28;100292;-72
2023/06/25 01:40:39;;;;;;;17.75;9.98;;;;;;;;;;5010853;28;98931;-72
2023/06/25 01:43:05;;;;;;;14.60;9.70;;;;;;;;;;5011222;28;99263;-73
2023/06/25 01:45:32;;;;;;;14.43;9.80;;;;;;;;;;5024515;28;100124;-72
2023/06/25 01:47:59;;;;;;;15.50;9.25;;;;;;;;;;5034482;28;98592;-73
2023/06/25 01:50:25;;;;;;;19.02;9.60;;;;;;;;;;5031896;28;102443;-72
2023/06/25 01:52:52;;;;;;;14.18;9.82;;;;;;;;;;5031649;27;98577;-72
2023/06/25 01:55:18;;;;;;;13.60;9.20;;;;;;;;;;5031758;28;99251;-72
2023/06/25 01:57:45;;;;;;;14.07;8.75;;;;;;;;;;5030902;28;99862;-72
2023/06/25 02:00:12;;;;;;;15.77;9.73;;;;;;;;;;5031256;28;98528;-72
2023/06/25 02:02:38;;;;;;;13.68;9.75;;;;;;;;;;5031286;28;100583;-72
2023/06/25 02:05:05;;;;;;;12.65;10.30;;;;;;;;;;5030862;28;99472;-73
2023/06/25 02:07:31;;;;;;;14.27;11.00;;;;;;;;;;5034128;28;98533;-73
2023/06/25 02:09:58;;;;;;;15.32;9.95;;;;;;;;;;5030079;28;99587;-73
2023/06/25 02:12:24;;;;;;;11.73;8.43;;;;;;;;;;5031179;28;98446;-72
2023/06/25 02:14:50;;;;;;;13.82;9.35;;;;;;;;;;5031062;28;99239;-72
2023/06/25 02:17:17;;;;;;;15.32;9.93;;;;;;;;;;5030996;28;99444;-73
2023/06/25 02:19:43;;;;;;;18.13;10.48;;;;;;;;;;5031555;28;97938;-72
2023/06/25 02:22:09;;;;;;;12.10;9.25;;;;;;;;;;5030276;28;98520;-72
2023/06/25 02:24:36;;;;;;;10.85;8.52;;;;;;;;;;5030829;28;99464;-72
2023/06/25 02:27:02;;;;;;;13.88;9.55;;;;;;;;;;5030154;28;99738;-72
2023/06/25 02:29:28;;;;;;;16.65;10.48;;;;;;;;;;5033561;27;99984;-72
2023/06/25 02:31:55;;;;;;;14.43;10.60;;;;;;;;;;5028926;27;98454;-72
2023/06/25 02:34:21;;;;;;;13.02;10.68;;;;;;;;;;5030385;27;99167;-72
2023/06/25 02:36:49;;;;;;;17.83;10.40;;;;;;;;;;5029641;27;99512;-72
2023/06/25 02:39:15;;;;;;;11.73;9.57;;;;;;;;;;5030242;28;98957;-72
2023/06/25 02:41:41;;;;;;;15.48;9.63;;;;;;;;;;5030984;27;99258;-72
2023/06/25 02:44:08;;;;;;;13.13;8.77;;;;;;;;;;5030563;28;98856;-72
2023/06/25 02:46:35;;;;;;;10.57;8.00;;;;;;;;;;5030462;28;98575;-72
2023/06/25 02:49:01;;;;;;;12.73;9.68;;;;;;;;;;5030635;28;99176;-72
2023/06/25 02:51:28;;;;;;;13.43;9.38;;;;;;;;;;5033280;27;100132;-72
2023/06/25 02:53:54;;;;;;;15.32;9.85;;;;;;;;;;5030655;27;100076;-72
2023/06/25 02:56:21;;;;;;;15.48;10.02;;;;;;;;;;5030221;28;99544;-72
2023/06/25 02:58:47;;;;;;;13.70;9.20;;;;;;;;;;5030069;27;98491;-73
2023/06/25 03:01:14;;;;;;;15.85;9.95;;;;;;;;;;5030794;28;100757;-72
2023/06/25 03:03:40;;;;;;;14.65;9.07;;;;;;;;;;5030264;28;99451;-72
2023/06/25 03:06:07;;;;;;;13.57;9.05;;;;;;;;;;5030944;28;98866;-72
2023/06/25 03:08:33;;;;;;;12.18;8.90;;;;;;;;;;5031417;28;100299;-72
2023/06/25 03:11:00;;;;;;;14.75;9.68;;;;;;;;;;5029863;28;99640;-72
2023/06/25 03:13:26;;;;;;;11.52;8.98;;;;;;;;;;5033627;28;98522;-72
2023/06/25 03:15:52;;;;;;;15.18;10.10;;;;;;;;;;5029726;28;101380;-72
2023/06/25 03:18:19;;;;;;;13.93;9.93;;;;;;;;;;5029596;28;98553;-72
2023/06/25 03:20:45;;;;;;;14.55;9.63;;;;;;;;;;5030276;28;99582;-72
2023/06/25 03:23:12;;;;;;;16.70;10.10;;;;;;;;;;5030159;28;100659;-72
2023/06/25 03:25:38;;;;;;;16.35;10.25;;;;;;;;;;5029628;28;98462;-72
2023/06/25 03:28:05;;;;;;;16.35;10.55;;;;;;;;;;5029076;28;99281;-72
2023/06/25 03:30:31;;;;;;;15.48;11.25;;;;;;;;;;5028647;28;99220;-72
2023/06/25 03:32:57;;;;;;;13.85;10.23;;;;;;;;;;5029732;28;97740;-72
2023/06/25 03:35:24;;;;;;;16.50;10.65;;;;;;;;;;5032074;28;98542;-73
2023/06/25 03:37:50;;;;;;;17.10;12.05;;;;;;;;;;5029505;27;98546;-72
2023/06/25 03:40:16;;;;;;;15.88;10.35;;;;;;;;;;5028800;27;100287;-72
2023/06/25 03:42:43;;;;;;;12.50;9.68;;;;;;;;;;5029401;27;99542;-72
2023/06/25 03:45:09;;;;;;;14.13;9.77;;;;;;;;;;5032784;28;98571;-72
2023/06/25 03:47:36;;;;;;;15.95;9.25;;;;;;;;;;5033965;27;101892;-72
2023/06/25 03:50:02;;;;;;;11.15;8.93;;;;;;;;;;5033334;28;100555;-72
2023/06/25 03:52:29;;;;;;;11.93;9.02;;;;;;;;;;5033204;28;98596;-72
2023/06/25 03:54:55;;;;;;;17.85;9.48;;;;;;;;;;5033117;27;99303;-72
2023/06/25 03:57:23;;;;;;;13.55;9.30;;;;;;;;;;5036656;28;98683;-72
2023/06/25 03:59:49;;;;;;;10.98;9.00;;;;;;;;;;5033539;27;99575;-72
2023/06/25 04:02:15;;;;;;;11.30;8.95;;;;;;;;;;5032770;27;99683;-72
2023/06/25 04:04:42;;;;;;;12.50;8.80;;;;;;;;;;5032653;27;99233;-72
2023/06/25 04:07:08;;;;;;;12.25;9.32;;;;;;;;;;5032934;27;99874;-72
2023/06/25 04:09:35;;;;;;;15.70;9.77;;;;;;;;;;5032406;27;99584;-72
2023/06/25 04:12:01;;;;;;;16.60;10.80;;;;;;;;;;5033206;28;98498;-72
2023/06/25 04:14:27;;;;;;;10.35;9.25;;;;;;;;;;5032017;28;99332;-72
2023/06/25 04:16:54;;;;;;;14.00;10.52;;;;;;;;;;5035960;28;100761;-72
2023/06/25 04:19:20;;;;;;;12.20;9.55;;;;;;;;;;5032125;28;99240;-72
2023/06/25 04:21:46;;;;;;;16.33;9.57;;;;;;;;;;5033499;28;100121;-72
2023/06/25 04:24:13;;;;;;;14.02;9.98;;;;;;;;;;5032615;28;98532;-72
2023/06/25 04:26:39;;;;;;;11.15;9.35;;;;;;;;;;5031892;27;98553;-72
2023/06/25 04:29:06;;;;;;;12.63;9.95;;;;;;;;;;5031838;28;100594;-72
2023/06/25 04:31:32;;;;;;;14.88;9.70;;;;;;;;;;5032875;28;98527;-72
2023/06/25 04:33:58;;;;;;;13.13;10.48;;;;;;;;;;5032502;28;99416;-72
2023/06/25 04:36:25;;;;;;;14.10;10.18;;;;;;;;;;5031188;28;99548;-72
2023/06/25 04:38:51;;;;;;;16.25;9.98;;;;;;;;;;5035086;28;98564;-72
2023/06/25 04:41:17;;;;;;;13.15;9.80;;;;;;;;;;5013884;28;100545;-72
2023/06/25 04:43:44;;;;;;;17.75;10.98;;;;;;;;;;5032469;28;98509;-72
2023/06/25 04:46:10;;;;;;;14.40;9.50;;;;;;;;;;5032559;27;100424;-72
2023/06/25 04:48:37;;;;;;;15.02;10.60;;;;;;;;;;5032355;27;100784;-73
2023/06/25 04:51:04;;;;;;;14.23;9.68;;;;;;;;;;5031689;28;98549;-72
2023/06/25 04:53:30;;;;;;;13.82;10.95;;;;;;;;;;5031557;27;99263;-72
2023/06/25 04:56:00;;;;;;;12.25;9.77;;;;;;;;;;5030272;28;99588;-72
2023/06/25 04:58:26;;;;;;;16.88;10.65;;;;;;;;;;5032169;28;98522;-72
2023/06/25 05:00:52;;;;;;;16.38;10.52;;;;;;;;;;5034424;27;99288;-72
2023/06/25 05:03:19;;;;;;;16.67;10.93;;;;;;;;;;5031330;28;98720;-72
2023/06/25 05:05:45;;;;;;;15.48;11.13;;;;;;;;;;5031543;27;99133;-72
2023/06/25 05:08:12;;;;;;;20.63;11.25;;;;;;;;;;5031132;28;99579;-72
2023/06/25 05:10:40;;;;;;;18.50;11.63;;;;;;;;;;5031480;28;97768;-72
2023/06/25 05:13:06;;;;;;;19.50;11.82;;;;;;;;;;5031064;28;98495;-72
2023/06/25 05:15:33;;;;;;;15.43;11.25;;;;;;;;;;5013277;28;99527;-72
2023/06/25 05:17:59;;;;;;;16.25;12.23;;;;;;;;;;5030773;27;99309;-72
2023/06/25 05:20:26;;;;;;;19.40;12.55;;;;;;;;;;5013442;28;99953;-72
2023/06/25 05:22:52;;;;;;;17.00;12.88;;;;;;;;;;5034257;27;99683;-72
2023/06/25 05:25:19;;;;;;;17.75;13.05;;;;;;;;;;5031087;28;99272;-72
2023/06/25 05:27:45;;;;;;;22.88;14.32;;;;;;;;;;5030485;27;99591;-72
2023/06/25 05:30:11;;;;;;;17.92;13.68;;;;;;;;;;5031438;28;98797;-72
2023/06/25 05:32:38;;;;;;;23.55;13.90;;;;;;;;;;5031217;28;100755;-72
2023/06/25 05:35:04;;;;;;;17.40;12.85;;;;;;;;;;5030940;27;99380;-72
2023/06/25 05:37:31;;;;;;;24.25;14.80;;;;;;;;;;5031589;27;98523;-72
2023/06/25 05:39:57;;;;;;;26.05;14.93;;;;;;;;;;5030912;28;99147;-73
2023/06/25 05:42:23;;;;;;;29.00;14.05;;;;;;;;;;5029954;28;100322;-72
2023/06/25 05:44:50;;;;;;;20.08;13.57;;;;;;;;;;5034450;28;98516;-72
2023/06/25 05:47:16;;;;;;;16.27;12.98;;;;;;;;;;5030379;27;99559;-72
2023/06/25 05:49:43;;;;;;;20.17;14.40;;;;;;;;;;5031062;27;98735;-72
2023/06/25 05:52:09;;;;;;;24.55;12.80;;;;;;;;;;5030476;27;99463;-72
2023/06/25 05:54:36;;;;;;;22.15;13.82;;;;;;;;;;5030443;28;99143;-72
2023/06/25 05:57:02;;;;;;;21.60;12.23;;;;;;;;;;5030575;28;98982;-72
2023/06/25 05:59:28;;;;;;;20.75;13.40;;;;;;;;;;5031498;27;99132;-72
2023/06/25 06:01:55;;;;;;;18.85;13.05;;;;;;;;;;5030261;27;99801;-72
2023/06/25 06:04:21;;;;;;;19.33;12.75;;;;;;;;;;5030745;27;98494;-72
2023/06/25 06:06:47;;;;;;;16.75;12.98;;;;;;;;;;5032725;27;99430;-72
2023/06/25 06:09:14;;;;;;;18.40;13.13;;;;;;;;;;5030183;27;98596;-72
2023/06/25 06:11:40;;;;;;;17.30;12.30;;;;;;;;;;5030791;28;102767;-72
2023/06/25 06:14:07;;;;;;;20.90;11.82;;;;;;;;;;5029947;28;100112;-72
2023/06/25 06:16:33;;;;;;;16.17;12.48;;;;;;;;;;5029995;27;98605;-72
2023/06/25 06:19:00;;;;;;;17.50;11.88;;;;;;;;;;5029995;28;99352;-72
2023/06/25 06:21:26;;;;;;;17.70;12.40;;;;;;;;;;5029927;27;99980;-72
2023/06/25 06:23:52;;;;;;;19.35;12.45;;;;;;;;;;5031029;28;97863;-72
2023/06/25 06:26:19;;;;;;;13.98;11.27;;;;;;;;;;5032995;28;98814;-72
2023/06/25 06:28:45;;;;;;;16.15;10.25;;;;;;;;;;5030453;28;98690;-72
2023/06/25 06:31:11;;;;;;;15.60;10.75;;;;;;;;;;5029414;28;99263;-72
2023/06/25 06:33:38;;;;;;;18.90;9.60;;;;;;;;;;5029675;28;99731;-72
2023/06/25 06:36:05;;;;;;;14.20;11.20;;;;;;;;;;5030504;28;99594;-72
2023/06/25 06:38:31;;;;;;;20.15;11.48;;;;;;;;;;5030037;28;99305;-72
2023/06/25 06:40:58;;;;;;;15.80;11.20;;;;;;;;;;5029525;27;100050;-72
2023/06/25 06:43:24;;;;;;;16.58;10.85;;;;;;;;;;5029712;28;98695;-72
2023/06/25 06:45:51;;;;;;;16.58;11.65;;;;;;;;;;5029671;27;99261;-73
2023/06/25 06:48:17;;;;;;;19.55;11.90;;;;;;;;;;5033563;28;99797;-72
2023/06/25 06:50:43;;;;;;;16.10;12.25;;;;;;;;;;5029989;27;98525;-73
2023/06/25 06:53:10;;;;;;;16.73;11.40;;;;;;;;;;5029200;28;99655;-73
2023/06/25 06:55:36;;;;;;;18.55;11.93;;;;;;;;;;5011857;28;99646;-73
2023/06/25 06:58:03;;;;;;;16.20;10.10;;;;;;;;;;5029449;28;99958;-73
2023/06/25 07:00:30;;;;;;;14.85;10.00;;;;;;;;;;5029168;27;99547;-73
2023/06/25 07:02:57;;;;;;;18.45;12.10;;;;;;;;;;5029401;28;98485;-73
2023/06/25 07:05:23;;;;;;;16.75;10.18;;;;;;;;;;5028205;28;99167;-73
2023/06/25 07:07:50;;;;;;;15.98;11.20;;;;;;;;;;5029202;28;99590;-73
2023/06/25 07:10:16;;;;;;;32.22;11.48;;;;;;;;;;5032702;28;98514;-73
2023/06/25 07:12:43;;;;;;;17.30;8.70;;;;;;;;;;5030207;28;99744;-73
2023/06/25 07:15:09;;;;;;;18.30;10.02;;;;;;;;;;5029596;28;98501;-73
2023/06/25 07:17:36;;;;;;;13.07;8.60;;;;;;;;;;5029052;28;100343;-73
2023/06/25 07:20:02;;;;;;;11.95;8.40;;;;;;;;;;5028884;28;100263;-73
2023/06/25 07:22:28;;;;;;;13.07;9.48;;;;;;;;;;5030325;27;98545;-73
2023/06/25 07:24:55;;;;;;;12.57;9.07;;;;;;;;;;5029684;27;99382;-73
2023/06/25 07:27:21;;;;;;;11.65;7.97;;;;;;;;;;5029519;28;99493;-73
2023/06/25 07:29:47;;;;;;;18.75;8.63;;;;;;;;;;5029805;28;98474;-73
2023/06/25 07:32:14;;;;;;;11.73;8.48;;;;;;;;;;5033215;28;100152;-73
2023/06/25 07:34:40;;;;;;;12.90;8.15;;;;;;;;;;5030133;28;98501;-73
2023/06/25 07:37:07;;;;;;;18.83;8.07;;;;;;;;;;5030086;28;99645;-73
2023/06/25 07:39:33;;;;;;;16.50;8.50;;;;;;;;;;5029394;28;99627;-73
2023/06/25 07:42:01;;;;;;;13.48;8.85;;;;;;;;;;5029428;27;98541;-73
2023/06/25 07:44:27;;;;;;;9.88;8.00;;;;;;;;;;5029589;28;100346;-73
2023/06/25 07:46:57;;;;;;;15.25;9.32;;;;;;;;;;5029929;28;99360;-73
2023/06/25 07:49:23;;;;;;;15.27;8.75;;;;;;;;;;5011762;28;98809;-73
2023/06/25 07:51:50;;;;;;;13.48;9.48;;;;;;;;;;5029569;28;99693;-73
2023/06/25 07:54:17;;;;;;;10.88;8.20;;;;;;;;;;5032469;28;99519;-73
2023/06/25 07:56:44;;;;;;;16.23;9.02;;;;;;;;;;5029819;27;99560;-73
2023/06/25 07:59:14;;;;;;;10.95;9.05;;;;;;;;;;5029337;28;100472;-73
2023/06/25 08:01:40;;;;;;;15.00;8.02;;;;;;;;;;5029100;28;98184;-73
2023/06/25 08:04:07;;;;;;;11.95;6.57;;;;;;;;;;5029902;27;99537;-73
2023/06/25 08:06:34;;;;;;;13.40;7.68;;;;;;;;;;5029402;27;100452;-73
2023/06/25 08:09:00;;;;;;;9.30;6.85;;;;;;;;;;5029306;28;100474;-73
2023/06/25 08:11:26;;;;;;;21.52;7.85;;;;;;;;;;5029783;28;99906;-73
2023/06/25 08:13:53;;;;;;;14.85;8.65;;;;;;;;;;5028879;28;99558;-74
2023/06/25 08:16:19;;;;;;;14.85;7.80;;;;;;;;;;5032905;28;98578;-74
2023/06/25 08:18:45;;;;;;;10.45;7.28;;;;;;;;;;5028800;28;99565;-73
2023/06/25 08:21:12;;;;;;;12.98;7.53;;;;;;;;;;5029567;28;98485;-73
2023/06/25 08:23:38;;;;;;;12.07;6.85;;;;;;;;;;5029019;28;99319;-73
2023/06/25 08:26:04;;;;;;;11.50;6.55;;;;;;;;;;5029702;28;99796;-73
2023/06/25 08:28:31;;;;;;;10.60;7.30;;;;;;;;;;5029522;27;98626;-73
2023/06/25 08:30:57;;;;;;;10.60;7.35;;;;;;;;;;5033240;27;100327;-73
2023/06/25 08:33:24;;;;;;;10.07;6.97;;;;;;;;;;5031691;28;100388;-73
2023/06/25 08:35:50;;;;;;;11.75;6.32;;;;;;;;;;5036030;28;99655;-74
2023/06/25 08:38:19;;;;;;;8.40;5.97;;;;;;;;;;5032474;27;100686;-74
2023/06/25 08:40:47;;;;;;;9.82;6.43;;;;;;;;;;5032351;28;98832;-73
2023/06/25 08:43:13;;;;;;;9.10;5.97;;;;;;;;;;5031590;27;99440;-73
2023/06/25 08:45:40;;;;;;;8.13;5.00;;;;;;;;;;5031659;28;99749;-73
2023/06/25 08:48:10;;;;;;;7.75;4.80;;;;;;;;;;5032476;28;98524;-74
2023/06/25 08:50:37;;;;;;;9.80;5.10;;;;;;;;;;5015150;28;99109;-74
2023/06/25 08:53:04;;;;;;;5.28;4.25;;;;;;;;;;5032340;28;100589;-73
2023/06/25 08:55:30;;;;;;;5.25;3.17;;;;;;;;;;5032387;27;98486;-74
2023/06/25 08:57:56;;;;;;;5.32;3.58;;;;;;;;;;5035041;28;99493;-74
2023/06/25 09:00:23;;;;;;;4.05;3.25;;;;;;;;;;5032460;27;98582;-73
2023/06/25 09:02:49;;;;;;;10.05;3.40;;;;;;;;;;5032302;28;99189;-74
2023/06/25 09:05:22;;;;;;;4.18;3.33;;;;;;;;;;5031714;28;99515;-73
2023/06/25 09:07:48;;;;;;;6.90;3.45;;;;;;;;;;5032120;27;98545;-73
2023/06/25 09:10:16;;;;;;;4.70;3.47;;;;;;;;;;5032202;28;98920;-73
2023/06/25 09:12:47;;;;;;;5.35;3.33;;;;;;;;;;5031728;27;99719;-74
2023/06/25 09:15:20;;;;;;;4.68;3.20;;;;;;;;;;5032338;28;97843;-74
2023/06/25 09:17:47;;;;;;;5.72;3.63;;;;;;;;;;5031898;27;99031;-74
2023/06/25 09:20:13;;;;;;;3.92;2.83;;;;;;;;;;5034772;28;99589;-74
2023/06/25 09:22:49;;;;;;;5.20;3.95;;;;;;;;;;5031889;28;100420;-74
2023/06/25 09:25:16;;;;;;;6.32;3.85;;;;;;;;;;5031798;28;99746;-74
2023/06/25 09:27:43;;;;;;;5.72;4.10;;;;;;;;;;5031388;27;98514;-74
2023/06/25 09:30:10;;;;;;;6.10;3.83;;;;;;;;;;5032081;28;100221;-74
2023/06/25 09:32:47;;;;;;;8.75;3.83;;;;;;;;;;5032025;27;102524;-74
2023/06/25 09:35:19;;;;;;;5.80;3.80;;;;;;;;;;5031586;28;98547;-74
2023/06/25 09:37:46;;;;;;;10.82;4.13;;;;;;;;;;5032250;28;100357;-74
2023/06/25 09:40:12;;;;;;;5.97;4.40;;;;;;;;;;5031087;27;98997;-74
2023/06/25 09:42:39;;;;;;;8.95;4.65;;;;;;;;;;5034874;27;98703;-74
2023/06/25 09:45:08;;;;;;;5.90;4.22;;;;;;;;;;5030546;27;99713;-74
2023/06/25 09:47:36;;;;;;;5.72;4.13;;;;;;;;;;5012841;28;99388;-74
2023/06/25 09:50:05;;;;;;;7.65;4.15;;;;;;;;;;5031435;28;100653;-74
2023/06/25 09:52:32;;;;;;;5.75;4.07;;;;;;;;;;5031195;28;99475;-74
2023/06/25 09:54:58;;;;;;;20.88;4.75;;;;;;;;;;5031231;28;98751;-74
2023/06/25 09:57:26;;;;;;;4.78;4.10;;;;;;;;;;5030972;28;99509;-74
2023/06/25 09:59:52;;;;;;;6.55;4.80;;;;;;;;;;5030719;28;99571;-75
2023/06/25 10:02:19;;;;;;;11.50;4.10;;;;;;;;;;5031240;27;98710;-75
2023/06/25 10:04:46;;;;;;;6.00;3.90;;;;;;;;;;5034565;28;99278;-73
2023/06/25 10:07:12;;;;;;;6.57;3.70;;;;;;;;;;5031271;28;98519;-73
2023/06/25 10:09:39;;;;;;;5.00;4.05;;;;;;;;;;5031108;28;99041;-73
2023/06/25 10:12:06;;;;;;;4.53;4.00;;;;;;;;;;5029881;28;100616;-75
2023/06/25 10:14:37;;;;;;;6.13;4.28;;;;;;;;;;5031169;28;98562;-75
2023/06/25 10:17:04;;;;;;;6.35;4.60;;;;;;;;;;5030978;28;99670;-73
2023/06/25 10:19:31;;;;;;;8.43;4.50;;;;;;;;;;5030398;28;99855;-73
2023/06/25 10:21:59;;;;;;;6.97;4.15;;;;;;;;;;5030891;28;98718;-73
2023/06/25 10:24:25;;;;;;;4.10;3.70;;;;;;;;;;5033837;28;99178;-74
2023/06/25 10:26:54;;;;;;;4.63;3.78;;;;;;;;;;5030998;27;98525;-74
2023/06/25 10:29:21;;;;;;;4.93;3.90;;;;;;;;;;5031294;28;99819;-74
2023/06/25 10:31:48;;;;;;;4.00;3.60;;;;;;;;;;5030290;28;99600;-74
2023/06/25 10:34:14;;;;;;;6.43;3.70;;;;;;;;;;5012615;28;98512;-74
2023/06/25 10:36:50;;;;;;;5.18;3.50;;;;;;;;;;5030293;28;99271;-74
2023/06/25 10:39:17;;;;;;;9.57;3.83;;;;;;;;;;5030514;27;100671;-74
2023/06/25 10:41:47;;;;;;;10.07;4.28;;;;;;;;;;5030266;28;98512;-73
2023/06/25 10:44:13;;;;;;;5.57;3.35;;;;;;;;;;5030730;27;100315;-74
2023/06/25 10:46:40;;;;;;;4.30;3.42;;;;;;;;;;5033119;28;99561;-74
2023/06/25 10:49:06;;;;;;;4.32;3.90;;;;;;;;;;5030790;28;99237;-74
2023/06/25 10:51:32;;;;;;;5.68;4.20;;;;;;;;;;5029631;27;99557;-74
2023/06/25 10:53:59;;;;;;;4.47;3.78;;;;;;;;;;5029920;27;97851;-74
2023/06/25 10:56:25;;;;;;;3.78;3.35;;;;;;;;;;5030942;28;99736;-74
2023/06/25 10:58:56;;;;;;;9.30;4.05;;;;;;;;;;5029898;28;99793;-74
2023/06/25 11:01:22;;;;;;;8.23;4.32;;;;;;;;;;5029293;27;99247;-74
2023/06/25 11:03:49;;;;;;;8.52;3.63;;;;;;;;;;5030823;28;101014;-74
2023/06/25 11:06:16;;;;;;;5.35;3.60;;;;;;;;;;5029607;28;99680;-74
2023/06/25 11:08:42;;;;;;;7.47;3.85;;;;;;;;;;5033549;28;98611;-74
2023/06/25 11:11:09;;;;;;;8.00;3.08;;;;;;;;;;5012123;28;99779;-74
2023/06/25 11:13:35;;;;;;;9.45;3.83;;;;;;;;;;5030806;28;98533;-74
2023/06/25 11:16:03;;;;;;;9.63;3.72;;;;;;;;;;5029048;28;99383;-74
2023/06/25 11:18:29;;;;;;;6.63;4.00;;;;;;;;;;5030281;28;98930;-74
2023/06/25 11:20:57;;;;;;;6.90;4.13;;;;;;;;;;5029880;27;98461;-74
2023/06/25 11:23:26;;;;;;;4.38;3.95;;;;;;;;;;5030287;28;99174;-74
2023/06/25 11:25:52;;;;;;;6.28;4.18;;;;;;;;;;5029557;27;102813;-75
2023/06/25 11:28:19;;;;;;;8.38;4.43;;;;;;;;;;5029749;27;98538;-74
2023/06/25 11:30:45;;;;;;;4.85;3.95;;;;;;;;;;5033246;28;100109;-75
2023/06/25 11:33:18;;;;;;;6.50;4.20;;;;;;;;;;5029788;28;98521;-74
2023/06/25 11:35:50;;;;;;;6.80;4.32;;;;;;;;;;5029449;28;99203;-74
2023/06/25 11:38:26;;;;;;;3.75;3.45;;;;;;;;;;5029686;28;99654;-74
2023/06/25 11:40:55;;;;;;;8.10;4.30;;;;;;;;;;5029714;27;98487;-74
2023/06/25 11:43:22;;;;;;;4.25;3.85;;;;;;;;;;5030886;28;100499;-74
2023/06/25 11:45:48;;;;;;;4.72;3.88;;;;;;;;;;5028696;27;99536;-74
2023/06/25 11:48:16;;;;;;;6.60;3.75;;;;;;;;;;5029440;27;98499;-74
2023/06/25 11:50:43;;;;;;;3.70;3.40;;;;;;;;;;5029883;27;99205;-74
2023/06/25 11:53:10;;;;;;;4.10;3.63;;;;;;;;;;5032396;28;99696;-74
2023/06/25 11:55:37;;;;;;;4.95;3.72;;;;;;;;;;5030358;27;101718;-74
2023/06/25 11:58:04;;;;;;;6.68;4.55;;;;;;;;;;5029161;27;99776;-74
2023/06/25 12:00:30;;;;;;;5.55;4.25;;;;;;;;;;5029027;27;98545;-73
2023/06/25 12:02:56;;;;;;;6.82;4.68;;;;;;;;;;5029543;27;99222;-73
2023/06/25 12:05:23;;;;;;;7.53;4.43;;;;;;;;;;5014489;28;99557;-73
2023/06/25 12:07:49;;;;;;;8.73;4.55;;;;;;;;;;5033765;28;97786;-73
2023/06/25 12:10:15;;;;;;;5.88;4.35;;;;;;;;;;5033275;28;98536;-73
2023/06/25 12:12:44;;;;;;;7.10;4.63;;;;;;;;;;5033313;28;100838;-73
2023/06/25 12:15:10;;;;;;;7.72;4.05;;;;;;;;;;5036073;28;99697;-76
2023/06/25 12:17:36;;;;;;;13.38;4.40;;;;;;;;;;5033157;28;102210;-73
2023/06/25 12:20:04;;;;;;;6.75;4.10;;;;;;;;;;5032861;28;98540;-73
2023/06/25 12:22:30;;;;;;;5.80;3.78;;;;;;;;;;5032698;27;99363;-73
2023/06/25 12:24:58;;;;;;;6.00;4.22;;;;;;;;;;5032197;27;100020;-73
2023/06/25 12:27:25;;;;;;;9.32;4.82;;;;;;;;;;5032190;27;98578;-74
2023/06/25 12:29:51;;;;;;;8.07;4.20;;;;;;;;;;5032941;27;99552;-75
2023/06/25 12:32:17;;;;;;;6.13;3.97;;;;;;;;;;5033062;28;98774;-75
2023/06/25 12:34:44;;;;;;;4.95;3.90;;;;;;;;;;5036201;28;98517;-75
2023/06/25 12:37:10;;;;;;;8.15;4.50;;;;;;;;;;5033014;28;102389;-74
2023/06/25 12:39:36;;;;;;;4.40;4.00;;;;;;;;;;5032804;28;99239;-74
2023/06/25 12:42:03;;;;;;;8.88;4.78;;;;;;;;;;5032468;27;100281;-75
2023/06/25 12:44:29;;;;;;;8.65;4.55;;;;;;;;;;5031725;27;99496;-74
2023/06/25 12:46:56;;;;;;;6.82;4.50;;;;;;;;;;5032006;27;98628;-74
2023/06/25 12:49:22;;;;;;;5.07;4.03;;;;;;;;;;5032635;27;100393;-74
2023/06/25 12:51:48;;;;;;;7.10;4.35;;;;;;;;;;5031939;28;99401;-74
2023/06/25 12:54:18;;;;;;;4.47;4.03;;;;;;;;;;5032734;28;98506;-74
2023/06/25 12:56:45;;;;;;;6.95;4.45;;;;;;;;;;5035601;27;99297;-75
2023/06/25 12:59:11;;;;;;;6.10;4.30;;;;;;;;;;5032170;28;99083;-74
2023/06/25 13:01:37;;;;;;;4.43;3.85;;;;;;;;;;5032295;28;99174;-74
2023/06/25 13:04:04;;;;;;;7.22;3.97;;;;;;;;;;5030971;27;99174;-75
2023/06/25 13:06:30;;;;;;;4.75;4.35;;;;;;;;;;5014412;28;98870;-74
2023/06/25 13:08:57;;;;;;;6.38;4.65;;;;;;;;;;5031891;27;99249;-74
2023/06/25 13:11:23;;;;;;;5.50;4.40;;;;;;;;;;5031682;28;99577;-74
2023/06/25 13:13:49;;;;;;;5.85;4.05;;;;;;;;;;5031959;28;98510;-74
2023/06/25 13:16:16;;;;;;;8.05;4.10;;;;;;;;;;5031225;27;98653;-75
2023/06/25 13:18:42;;;;;;;9.07;4.38;;;;;;;;;;5034854;27;99534;-74
2023/06/25 13:21:09;;;;;;;6.45;4.20;;;;;;;;;;5032306;28;99241;-74
2023/06/25 13:23:36;;;;;;;4.95;4.40;;;;;;;;;;5031355;28;99909;-75
2023/06/25 13:26:03;;;;;;;4.60;4.20;;;;;;;;;;5031870;28;98713;-75
2023/06/25 13:28:29;;;;;;;4.75;4.20;;;;;;;;;;5030556;27;99257;-75
2023/06/25 13:30:56;;;;;;;6.57;4.40;;;;;;;;;;5014215;28;99422;-75
2023/06/25 13:33:22;;;;;;;7.75;4.30;;;;;;;;;;5031881;27;98490;-73
2023/06/25 13:35:49;;;;;;;6.10;3.78;;;;;;;;;;5031589;28;98551;-74
2023/06/25 13:38:15;;;;;;;5.32;4.20;;;;;;;;;;5031058;28;99558;-74
2023/06/25 13:40:42;;;;;;;5.78;3.70;;;;;;;;;;5034892;28;98821;-74
2023/06/25 13:43:08;;;;;;;4.85;4.20;;;;;;;;;;5031532;27;100682;-74
2023/06/25 13:45:35;;;;;;;5.82;3.90;;;;;;;;;;5031664;27;97785;-75
2023/06/25 13:48:01;;;;;;;6.53;3.95;;;;;;;;;;5031563;27;98591;-74
2023/06/25 13:50:28;;;;;;;7.55;4.68;;;;;;;;;;5031306;28;99482;-75
2023/06/25 13:52:54;;;;;;;4.28;3.88;;;;;;;;;;5030848;27;99302;-73
2023/06/25 13:55:21;;;;;;;6.88;3.92;;;;;;;;;;5013879;28;99880;-74
2023/06/25 13:57:47;;;;;;;9.43;4.13;;;;;;;;;;5030989;27;100154;-74
2023/06/25 14:00:14;;;;;;;7.70;4.05;;;;;;;;;;5031833;27;98468;-75
2023/06/25 14:02:44;;;;;;;5.35;4.05;;;;;;;;;;5034219;28;99270;-75
2023/06/25 14:05:16;;;;;;;11.93;4.35;;;;;;;;;;5031010;27;99357;-74
2023/06/25 14:07:42;;;;;;;5.97;4.10;;;;;;;;;;5031234;28;99240;-74
2023/06/25 14:10:09;;;;;;;7.55;3.78;;;;;;;;;;5031190;28;98644;-74
2023/06/25 14:12:36;;;;;;;5.65;3.80;;;;;;;;;;5031088;27;98522;-74
2023/06/25 14:15:02;;;;;;;8.15;4.00;;;;;;;;;;5030990;27;99296;-75
2023/06/25 14:17:28;;;;;;;13.15;4.00;;;;;;;;;;5030008;27;100346;-74
2023/06/25 14:19:55;;;;;;;11.48;4.00;;;;;;;;;;5012387;27;98768;-74
2023/06/25 14:22:21;;;;;;;5.75;3.95;;;;;;;;;;5031101;27;99355;-75
2023/06/25 14:24:48;;;;;;;13.32;4.10;;;;;;;;;;5034373;27;100583;-74
2023/06/25 14:27:14;;;;;;;6.35;4.05;;;;;;;;;;5030721;27;99021;-74